Rockingham, North Carolina
Current Conditions -  °F | °C
As of 5:35 AM on Sunday 21 Dec 2014 (Local Time) from KRCZ Reporting Station
Overcast Overcast  
Wind Chill: 37°   Ceiling: 3100
Heat Index: 37°   Visibility: 7mi
Dew Point: 36°   Wind: 3mph
Humidity: 94%   Direction: 20°NNE
Pressure: 30.24"   Gusts: NA
Location:  34.94°N, 79.77°W
Report Text: KRCZ 211035Z AUTO 02003KT 7SM OVC031 03/02 A3024 RMK AO2 T00300021
Loading
Personal Weather Stations






























Interactive Weather Map New forecast layout! Learn more

10-Day Weather Forecast

Advertisements
Track Severe Weather on mobile